X  Close Metar Aviation Weather Data        LEGR Granada
Temperature
18°C Temperature
3°C Dewpoint
37% Humidity



Wind
0 KM/H
0 MPH
0 M/S
0 KTS



Calm
N
Current Conditions

Mostly Clear Mostly Clear
Pressure 1014 (hPa) - 29.96 (inHg)
Visibility 7 (mile) - 11 (km)
Airport
Airport-code LEGR

Location: Granada
Distance: 56 (km)

Metar:
METAR LEGR 020130Z AUTO 00000KT CAVOK 18/03 Q1016

Time: 02-08-2021 03:30 CEST